createdAt,value
2022-08-16T00:02:52.723Z,68.31
2022-08-16T00:05:21.101Z,68.33
2022-08-16T00:07:49.731Z,68.51
2022-08-16T00:10:25.887Z,68.40
2022-08-16T00:12:53.732Z,68.57
2022-08-16T00:15:50.963Z,68.55
2022-08-16T00:18:15.191Z,68.63
2022-08-16T00:20:43.314Z,68.66
2022-08-16T00:23:11.609Z,68.85
2022-08-16T00:26:33.536Z,68.85
2022-08-16T00:28:28.549Z,69.14
2022-08-16T00:30:59.197Z,69.10
2022-08-16T00:33:28.729Z,69.18
2022-08-16T00:35:58.580Z,69.04
2022-08-16T00:38:40.039Z,69.01
2022-08-16T00:41:09.638Z,69.28
2022-08-16T00:43:43.465Z,69.28
2022-08-16T00:46:33.198Z,69.18
2022-08-16T00:49:04.683Z,69.11
2022-08-16T00:51:33.609Z,69.45
2022-08-16T00:54:01.868Z,69.56
2022-08-16T00:56:57.474Z,69.30
2022-08-16T00:59:21.719Z,69.48
2022-08-16T01:01:51.752Z,69.51
2022-08-16T01:04:28.950Z,69.61
2022-08-16T01:07:01.714Z,69.47
2022-08-16T01:09:34.205Z,69.73
2022-08-16T01:12:03.200Z,69.55
2022-08-16T01:14:35.752Z,69.55
2022-08-16T01:17:03.872Z,69.62
2022-08-16T01:19:40.766Z,69.83
2022-08-16T01:22:48.692Z,69.72
2022-08-16T01:24:57.684Z,69.70
2022-08-16T01:27:34.350Z,69.50
2022-08-16T01:30:19.760Z,69.82
2022-08-16T01:33:01.186Z,69.99
2022-08-16T01:35:35.023Z,69.90
2022-08-16T01:38:25.736Z,70.07
2022-08-16T01:40:55.202Z,70.14
2022-08-16T01:43:24.529Z,70.04
2022-08-16T01:45:57.591Z,70.02
2022-08-16T01:48:27.630Z,69.83
2022-08-16T01:51:16.419Z,69.86
2022-08-16T01:53:44.082Z,70.10
2022-08-16T01:56:25.897Z,70.10
2022-08-16T01:58:57.892Z,70.12
2022-08-16T02:01:28.190Z,70.21
2022-08-16T02:03:58.674Z,70.35
2022-08-16T02:06:45.998Z,70.34
2022-08-16T02:09:17.891Z,70.37
2022-08-16T02:11:53.353Z,70.25
2022-08-16T02:14:26.309Z,70.38
2022-08-16T02:16:58.184Z,70.45
2022-08-16T02:19:59.232Z,70.53
2022-08-16T02:22:35.934Z,70.49
2022-08-16T02:25:07.136Z,70.38
2022-08-16T02:27:41.893Z,70.53
2022-08-16T02:30:36.998Z,70.61
2022-08-16T02:33:03.738Z,70.56
2022-08-16T02:35:32.189Z,70.61
2022-08-16T02:38:01.641Z,70.70
2022-08-16T02:40:37.376Z,70.60
2022-08-16T02:43:05.436Z,70.86
2022-08-16T02:45:33.216Z,70.75
2022-08-16T02:48:28.870Z,70.95
2022-08-16T02:50:55.296Z,70.93
2022-08-16T02:53:35.478Z,70.90
2022-08-16T02:56:04.086Z,70.89
2022-08-16T02:58:32.666Z,70.98
2022-08-16T03:01:01.102Z,71.05
2022-08-16T03:04:41.058Z,70.94
2022-08-16T03:06:42.263Z,71.11
2022-08-16T03:09:14.780Z,71.23
2022-08-16T03:11:47.559Z,71.20
2022-08-16T03:14:21.075Z,71.13
2022-08-16T03:16:59.238Z,71.19
2022-08-16T03:19:47.431Z,71.19
2022-08-16T03:22:19.540Z,71.18
2022-08-16T03:24:57.264Z,71.37
2022-08-16T03:27:31.187Z,71.35
2022-08-16T03:30:16.333Z,71.23
2022-08-16T03:32:51.623Z,71.23
2022-08-16T03:35:21.932Z,71.30
2022-08-16T03:38:02.519Z,71.20
2022-08-16T03:40:34.058Z,71.35
2022-08-16T03:43:20.142Z,71.23
2022-08-16T03:45:52.513Z,71.38
2022-08-16T03:48:36.798Z,71.47
2022-08-16T03:51:13.088Z,71.52
2022-08-16T03:53:57.743Z,71.63
2022-08-16T03:56:30.339Z,71.61
2022-08-16T03:58:58.902Z,71.89
2022-08-16T04:01:30.021Z,71.70
2022-08-16T04:03:57.983Z,71.81
2022-08-16T04:06:27.732Z,71.74
2022-08-16T04:08:55.726Z,71.65
2022-08-16T04:11:25.337Z,71.65
2022-08-16T04:14:01.619Z,71.96
2022-08-16T04:16:39.402Z,71.62
2022-08-16T04:19:31.462Z,71.96
2022-08-16T04:22:01.043Z,71.92
2022-08-16T04:24:41.738Z,71.86
2022-08-16T04:27:24.515Z,71.93
2022-08-16T04:30:02.571Z,71.89
2022-08-16T04:32:33.846Z,71.87
2022-08-16T04:35:09.320Z,71.96
2022-08-16T04:37:43.170Z,72.12
2022-08-16T04:40:21.550Z,72.07
2022-08-16T04:42:50.777Z,72.08
2022-08-16T04:45:18.832Z,71.90
2022-08-16T04:48:06.483Z,72.03
2022-08-16T04:50:43.486Z,71.88
2022-08-16T04:53:16.589Z,71.85
2022-08-16T04:55:47.375Z,71.95
2022-08-16T04:58:44.379Z,71.99
2022-08-16T05:01:09.691Z,71.94
2022-08-16T05:03:41.986Z,71.85
2022-08-16T05:06:42.461Z,72.00
2022-08-16T05:09:36.509Z,71.92
2022-08-16T05:12:07.173Z,71.76
2022-08-16T05:14:45.707Z,72.02
2022-08-16T05:17:16.729Z,72.01
2022-08-16T05:19:46.870Z,71.88
2022-08-16T05:22:28.414Z,71.98
2022-08-16T05:24:57.325Z,71.99
2022-08-16T05:27:25.392Z,71.86
2022-08-16T05:29:57.795Z,71.92
2022-08-16T05:32:32.677Z,71.92
2022-08-16T05:35:03.704Z,71.75
2022-08-16T05:37:39.718Z,71.60
2022-08-16T05:40:10.077Z,71.59
2022-08-16T05:42:46.146Z,71.46
2022-08-16T05:45:21.836Z,71.50
2022-08-16T05:47:59.502Z,71.35
2022-08-16T05:50:34.295Z,71.43
2022-08-16T05:53:03.611Z,70.92
2022-08-16T05:55:40.895Z,70.97
2022-08-16T05:58:08.982Z,70.89
2022-08-16T06:00:56.862Z,70.58
2022-08-16T06:03:25.429Z,70.45
2022-08-16T06:06:00.925Z,70.56
2022-08-16T06:08:42.379Z,70.48
2022-08-16T06:11:15.250Z,70.36
2022-08-16T06:13:47.495Z,70.33
2022-08-16T06:16:18.824Z,70.29
2022-08-16T06:18:48.596Z,70.10
2022-08-16T06:21:22.767Z,70.33
2022-08-16T06:23:54.701Z,70.15
2022-08-16T06:26:34.837Z,70.06
2022-08-16T06:29:05.180Z,70.03
2022-08-16T06:31:38.385Z,70.01
2022-08-16T06:34:55.535Z,70.03
2022-08-16T06:37:04.067Z,69.84
2022-08-16T06:39:49.446Z,69.79
2022-08-16T06:42:39.211Z,69.32
2022-08-16T06:45:38.109Z,69.40
2022-08-16T06:48:14.408Z,69.25
2022-08-16T06:50:50.206Z,69.10
2022-08-16T06:53:19.016Z,68.95
2022-08-16T06:55:58.630Z,68.96
2022-08-16T06:58:31.629Z,68.79
2022-08-16T07:01:09.616Z,68.96
2022-08-16T07:03:55.442Z,68.60
2022-08-16T07:06:26.686Z,68.56
2022-08-16T07:08:56.884Z,68.48
2022-08-16T07:11:48.052Z,68.62
2022-08-16T07:14:24.298Z,68.22
2022-08-16T07:16:58.368Z,68.06
2022-08-16T07:19:33.648Z,67.94
2022-08-16T07:22:37.569Z,67.56
2022-08-16T07:25:04.215Z,67.49
2022-08-16T07:27:33.822Z,67.40
2022-08-16T07:30:40.438Z,67.29
2022-08-16T07:32:57.759Z,67.40
2022-08-16T07:35:25.587Z,67.10
2022-08-16T07:37:54.347Z,67.29
2022-08-16T07:40:58.397Z,66.97
2022-08-16T07:43:16.026Z,66.38
2022-08-16T07:45:44.781Z,65.89
2022-08-16T07:48:19.534Z,65.74
2022-08-16T07:50:56.451Z,65.60
2022-08-16T07:53:29.023Z,64.81
2022-08-16T07:55:57.776Z,64.48
2022-08-16T07:58:33.828Z,64.21
2022-08-16T08:01:10.741Z,63.69
2022-08-16T08:03:53.658Z,63.40
2022-08-16T08:06:28.568Z,62.90
2022-08-16T08:08:59.501Z,62.82
2022-08-16T08:11:28.671Z,62.67
2022-08-16T08:14:03.547Z,62.25
2022-08-16T08:16:35.639Z,61.99
2022-08-16T08:19:04.178Z,61.72
2022-08-16T08:22:01.268Z,61.13
2022-08-16T08:24:36.108Z,60.72
2022-08-16T08:27:05.449Z,60.39
2022-08-16T08:29:37.574Z,60.22
2022-08-16T08:32:57.377Z,59.31
2022-08-16T08:35:00.364Z,59.11
2022-08-16T08:37:53.924Z,58.96
2022-08-16T08:40:24.542Z,58.49
2022-08-16T08:43:00.313Z,57.86
2022-08-16T08:45:48.542Z,57.38
2022-08-16T08:48:33.546Z,56.56
2022-08-16T08:51:04.438Z,56.52
2022-08-16T08:53:34.327Z,55.96
2022-08-16T08:56:22.550Z,55.14
2022-08-16T08:58:54.753Z,54.99
2022-08-16T09:01:36.718Z,54.35
2022-08-16T09:04:10.823Z,51.89
2022-08-16T09:06:44.346Z,50.32
2022-08-16T09:09:16.992Z,49.33
2022-08-16T09:11:53.363Z,47.16
2022-08-16T09:14:28.680Z,46.92
2022-08-16T09:17:03.893Z,45.24
2022-08-16T09:19:40.860Z,42.79
2022-08-16T09:22:20.924Z,41.20
2022-08-16T09:24:53.633Z,39.14
2022-08-16T09:27:26.542Z,38.35
2022-08-16T09:29:59.807Z,37.45
2022-08-16T09:32:30.692Z,36.65
2022-08-16T09:34:59.705Z,34.82
2022-08-16T09:37:36.463Z,34.10
2022-08-16T09:40:31.668Z,33.29
2022-08-16T09:42:58.753Z,31.67
2022-08-16T09:45:28.989Z,30.77
2022-08-16T09:47:58.442Z,29.83
2022-08-16T09:50:36.978Z,29.47
2022-08-16T09:53:15.589Z,29.10
2022-08-16T09:55:49.095Z,29.57
2022-08-16T09:58:41.727Z,29.25
2022-08-16T10:01:06.389Z,27.75
2022-08-16T10:03:36.690Z,26.59
2022-08-16T10:06:04.849Z,25.82
2022-08-16T10:08:33.702Z,24.66
2022-08-16T10:11:50.397Z,22.58
2022-08-16T10:14:19.912Z,21.98
2022-08-16T10:17:00.026Z,22.45
2022-08-16T10:19:32.063Z,22.30
2022-08-16T10:22:04.977Z,21.27
2022-08-16T10:24:33.764Z,20.56
2022-08-16T10:27:22.261Z,20.19
2022-08-16T10:29:59.479Z,19.96
2022-08-16T10:32:32.313Z,20.32
2022-08-16T10:35:00.300Z,20.28
2022-08-16T10:37:32.547Z,20.63
2022-08-16T10:40:05.301Z,21.15
2022-08-16T10:42:32.988Z,21.77
2022-08-16T10:45:02.822Z,22.26
2022-08-16T10:47:34.381Z,22.31
2022-08-16T10:50:06.939Z,22.43
2022-08-16T10:52:49.649Z,22.54
2022-08-16T10:58:11.708Z,23.24
2022-08-16T11:00:40.857Z,23.92
2022-08-16T11:03:43.060Z,24.24
2022-08-16T11:06:00.798Z,24.12
2022-08-16T11:08:35.183Z,24.77
2022-08-16T11:11:11.701Z,25.25
2022-08-16T11:19:17.545Z,26.50
2022-08-16T11:24:41.752Z,27.46
2022-08-16T11:27:24.114Z,27.60
2022-08-16T11:29:55.746Z,27.88
2022-08-16T11:32:31.181Z,27.87
2022-08-16T11:35:14.138Z,28.36
2022-08-16T11:40:36.373Z,28.97
2022-08-16T11:43:04.718Z,29.87
2022-08-16T11:45:34.926Z,30.21
2022-08-16T11:48:03.617Z,30.78
2022-08-16T11:50:33.587Z,31.22
2022-08-16T11:53:02.467Z,31.59
2022-08-16T11:55:31.759Z,32.04
2022-08-16T11:58:00.514Z,32.62
2022-08-16T12:00:34.205Z,33.11
2022-08-16T12:03:17.086Z,33.41
2022-08-16T12:05:45.313Z,33.86
2022-08-16T12:08:14.966Z,34.65
2022-08-16T12:10:46.696Z,34.80
2022-08-16T12:16:03.712Z,35.89
2022-08-16T12:18:30.123Z,36.58
2022-08-16T12:20:58.314Z,36.43
2022-08-16T12:23:26.266Z,37.05
2022-08-16T12:25:53.289Z,38.03
2022-08-16T12:28:25.322Z,38.20
2022-08-16T12:31:03.937Z,38.54
2022-08-16T12:33:31.837Z,39.03
2022-08-16T12:36:09.919Z,39.37
2022-08-16T12:38:46.667Z,39.66
2022-08-16T12:41:14.394Z,40.16
2022-08-16T12:43:51.373Z,40.16
2022-08-16T12:46:18.827Z,40.11
2022-08-16T12:48:57.065Z,40.18
2022-08-16T12:51:26.182Z,40.24
2022-08-16T12:53:59.983Z,40.51
2022-08-16T12:56:29.158Z,40.69
2022-08-16T12:58:56.268Z,40.68
2022-08-16T13:01:26.082Z,40.75
2022-08-16T13:04:08.188Z,40.51
2022-08-16T13:06:39.263Z,40.33
2022-08-16T13:09:19.407Z,40.39
2022-08-16T13:11:49.225Z,40.13
2022-08-16T13:14:31.206Z,39.80
2022-08-16T13:17:00.277Z,39.94
2022-08-16T13:19:35.142Z,40.11
2022-08-16T13:22:19.537Z,40.40
2022-08-16T13:24:46.190Z,40.25
2022-08-16T13:27:12.886Z,40.41
2022-08-16T13:29:44.011Z,40.68
2022-08-16T13:32:40.226Z,40.77
2022-08-16T13:34:57.775Z,40.79
2022-08-16T13:37:24.001Z,41.30
2022-08-16T13:39:52.406Z,41.25
2022-08-16T13:42:19.835Z,41.15
2022-08-16T13:44:56.595Z,41.66
2022-08-16T13:47:25.257Z,41.93
2022-08-16T13:49:56.576Z,42.33
2022-08-16T13:52:24.259Z,42.67
2022-08-16T13:54:51.351Z,42.50
2022-08-16T13:57:17.679Z,42.80
2022-08-16T13:59:44.262Z,43.07
2022-08-16T14:02:11.836Z,43.75
2022-08-16T14:04:38.593Z,43.64
2022-08-16T14:07:08.369Z,44.02
2022-08-16T14:09:35.836Z,44.25
2022-08-16T14:12:09.592Z,44.41
2022-08-16T14:14:43.650Z,44.45
2022-08-16T14:17:10.075Z,43.91
2022-08-16T14:19:37.345Z,43.60
2022-08-16T14:22:19.696Z,43.57
2022-08-16T14:24:57.897Z,43.48
2022-08-16T14:27:27.145Z,43.69
2022-08-16T14:29:54.220Z,43.64
2022-08-16T14:32:33.219Z,42.65
2022-08-16T14:35:10.985Z,42.72
2022-08-16T14:37:38.175Z,42.57
2022-08-16T14:40:05.423Z,42.74
2022-08-16T14:42:31.749Z,42.26
2022-08-16T14:45:00.230Z,42.40
2022-08-16T14:47:31.577Z,42.35
2022-08-16T14:50:01.368Z,42.04
2022-08-16T14:52:54.166Z,42.14
2022-08-16T14:55:14.618Z,42.64
2022-08-16T14:57:40.966Z,42.77
2022-08-16T15:00:08.942Z,42.85
2022-08-16T15:02:39.073Z,42.89
2022-08-16T15:05:07.368Z,43.17
2022-08-16T15:07:35.948Z,43.14
2022-08-16T15:10:03.822Z,43.36
2022-08-16T15:12:33.483Z,43.21
2022-08-16T15:15:01.223Z,43.20
2022-08-16T15:17:27.557Z,43.13
2022-08-16T15:20:01.058Z,42.81
2022-08-16T15:22:28.892Z,42.80
2022-08-16T15:24:58.675Z,42.86
2022-08-16T15:27:26.023Z,43.03
2022-08-16T15:30:02.497Z,43.12
2022-08-16T15:32:49.640Z,43.06
2022-08-16T15:35:17.311Z,42.87
2022-08-16T15:37:45.691Z,43.38
2022-08-16T15:40:26.529Z,43.55
2022-08-16T15:43:01.466Z,43.90
2022-08-16T15:45:46.069Z,43.99
2022-08-16T15:48:14.222Z,43.83
2022-08-16T15:50:43.828Z,43.93
2022-08-16T15:53:12.555Z,44.14
2022-08-16T15:55:38.973Z,44.18
2022-08-16T15:58:35.535Z,44.33
2022-08-16T16:00:51.661Z,44.56
2022-08-16T16:03:18.789Z,44.88
2022-08-16T16:05:46.254Z,45.31
2022-08-16T16:08:16.061Z,45.23
2022-08-16T16:10:54.449Z,45.51
2022-08-16T16:13:21.220Z,45.51
2022-08-16T16:15:51.726Z,45.30
2022-08-16T16:18:18.306Z,45.69
2022-08-16T16:21:04.756Z,45.61
2022-08-16T16:23:41.091Z,45.88
2022-08-16T16:26:11.719Z,46.17
2022-08-16T16:29:06.700Z,46.09
2022-08-16T16:31:26.587Z,46.28
2022-08-16T16:33:55.277Z,46.58
2022-08-16T16:36:28.179Z,46.90
2022-08-16T16:38:55.777Z,47.16
2022-08-16T16:41:23.950Z,47.23
2022-08-16T16:43:53.416Z,47.47
2022-08-16T16:46:43.076Z,47.70
2022-08-16T16:49:08.099Z,47.95
2022-08-16T16:51:40.671Z,48.11
2022-08-16T16:54:08.009Z,48.40
2022-08-16T16:56:37.579Z,48.63
2022-08-16T16:59:08.373Z,48.72
2022-08-16T17:01:57.439Z,48.89
2022-08-16T17:04:32.738Z,49.28
2022-08-16T17:07:00.251Z,49.59
2022-08-16T17:09:27.004Z,49.78
2022-08-16T17:11:55.512Z,50.01
2022-08-16T17:14:31.905Z,50.22
2022-08-16T17:16:59.008Z,50.45
2022-08-16T17:19:25.247Z,50.65
2022-08-16T17:21:58.760Z,51.00
2022-08-16T17:24:31.434Z,51.22
2022-08-16T17:27:07.056Z,51.47
2022-08-16T17:29:33.528Z,51.79
2022-08-16T17:32:02.333Z,52.00
2022-08-16T17:34:50.687Z,52.22
2022-08-16T17:37:17.420Z,52.31
2022-08-16T17:40:00.071Z,52.75
2022-08-16T17:42:39.086Z,52.96
2022-08-16T17:45:06.521Z,53.08
2022-08-16T17:47:32.777Z,53.25
2022-08-16T17:49:58.969Z,53.29
2022-08-16T17:52:27.796Z,53.58
2022-08-16T17:54:53.978Z,53.89
2022-08-16T17:57:20.289Z,53.89
2022-08-16T17:59:48.370Z,54.14
2022-08-16T18:02:43.313Z,54.35
2022-08-16T18:05:00.982Z,54.54
2022-08-16T18:07:28.230Z,54.69
2022-08-16T18:09:54.660Z,54.89
2022-08-16T18:12:51.296Z,55.17
2022-08-16T18:15:09.290Z,55.09
2022-08-16T18:17:35.599Z,55.43
2022-08-16T18:20:01.926Z,55.50
2022-08-16T18:22:30.833Z,55.85
2022-08-16T18:24:57.372Z,55.87
2022-08-16T18:27:26.883Z,56.12
2022-08-16T18:29:53.798Z,56.22
2022-08-16T18:32:21.897Z,56.28
2022-08-16T18:34:51.361Z,56.57
2022-08-16T18:37:18.417Z,56.73
2022-08-16T18:39:44.822Z,56.81
2022-08-16T18:42:11.942Z,57.00
2022-08-16T18:44:40.361Z,57.16
2022-08-16T18:47:06.748Z,57.37
2022-08-16T18:49:33.497Z,57.41
2022-08-16T18:52:00.089Z,57.70
2022-08-16T18:54:27.428Z,57.81
2022-08-16T18:56:57.569Z,57.83
2022-08-16T18:59:26.885Z,57.96
2022-08-16T19:01:53.306Z,58.05
2022-08-16T19:04:52.072Z,58.17
2022-08-16T19:07:13.448Z,58.44
2022-08-16T19:09:39.872Z,58.69
2022-08-16T19:12:06.374Z,58.74
2022-08-16T19:14:32.614Z,58.84
2022-08-16T19:16:58.786Z,58.83
2022-08-16T19:19:24.993Z,59.05
2022-08-16T19:21:51.294Z,59.34
2022-08-16T19:24:17.760Z,59.49
2022-08-16T19:26:45.373Z,59.28
2022-08-16T19:29:12.057Z,59.47
2022-08-16T19:31:39.954Z,59.65
2022-08-16T19:34:07.635Z,59.76
2022-08-16T19:36:36.100Z,59.90
2022-08-16T19:39:08.579Z,59.88
2022-08-16T19:41:40.784Z,60.25
2022-08-16T19:44:07.201Z,60.18
2022-08-16T19:46:33.719Z,60.39
2022-08-16T19:48:59.931Z,60.33
2022-08-16T19:51:26.404Z,60.57
2022-08-16T19:53:53.265Z,60.68
2022-08-16T19:56:22.433Z,60.69
2022-08-16T19:59:16.375Z,61.04
2022-08-16T20:01:41.197Z,61.06
2022-08-16T20:04:11.440Z,61.23
2022-08-16T20:06:38.907Z,61.18
2022-08-16T20:09:05.587Z,61.10
2022-08-16T20:11:31.792Z,61.40
2022-08-16T20:13:58.706Z,61.37
2022-08-16T20:16:25.103Z,61.46
2022-08-16T20:18:51.270Z,61.54
2022-08-16T20:21:17.990Z,61.66
2022-08-16T20:23:44.135Z,61.77
2022-08-16T20:26:10.301Z,61.91
2022-08-16T20:28:45.025Z,61.97
2022-08-16T20:31:22.184Z,62.03
2022-08-16T20:33:48.672Z,62.08
2022-08-16T20:36:16.238Z,62.17
2022-08-16T20:38:46.030Z,62.15
2022-08-16T20:41:12.273Z,62.35
2022-08-16T20:43:39.187Z,62.30
2022-08-16T20:46:05.406Z,62.50
2022-08-16T20:48:31.610Z,62.48
2022-08-16T20:50:57.786Z,62.65
2022-08-16T20:53:23.953Z,62.72
2022-08-16T20:55:50.296Z,62.75
2022-08-16T20:58:16.680Z,62.81
2022-08-16T21:00:44.597Z,62.92
2022-08-16T21:03:11.568Z,63.08
2022-08-16T21:05:37.859Z,63.05
2022-08-16T21:08:09.699Z,63.16
2022-08-16T21:10:50.386Z,63.34
2022-08-16T21:13:17.244Z,63.33
2022-08-16T21:15:43.961Z,63.35
2022-08-16T21:18:10.385Z,63.46
2022-08-16T21:20:37.227Z,63.59
2022-08-16T21:23:04.729Z,63.44
2022-08-16T21:25:31.404Z,63.46
2022-08-16T21:28:41.020Z,63.90
2022-08-16T21:30:44.025Z,63.88
2022-08-16T21:33:12.083Z,63.87
2022-08-16T21:35:39.379Z,64.09
2022-08-16T21:38:28.979Z,64.19
2022-08-16T21:40:52.068Z,64.11
2022-08-16T21:43:19.464Z,64.21
2022-08-16T21:45:46.417Z,64.15
2022-08-16T21:48:13.143Z,64.27
2022-08-16T21:50:40.331Z,64.34
2022-08-16T21:53:09.899Z,64.40
2022-08-16T21:55:36.547Z,64.55
2022-08-16T21:58:02.935Z,64.51
2022-08-16T22:00:30.004Z,64.61
2022-08-16T22:02:57.285Z,64.84
2022-08-16T22:05:24.068Z,64.80
2022-08-16T22:07:50.607Z,64.88
2022-08-16T22:11:04.505Z,65.00
2022-08-16T22:13:03.987Z,64.75
2022-08-16T22:15:30.181Z,64.95
2022-08-16T22:17:58.317Z,65.15
2022-08-16T22:20:25.257Z,65.30
2022-08-16T22:22:51.783Z,65.15
2022-08-16T22:25:19.126Z,65.33
2022-08-16T22:27:46.513Z,65.43
2022-08-16T22:30:12.970Z,65.32
2022-08-16T22:32:41.704Z,65.24
2022-08-16T22:35:10.805Z,65.67
2022-08-16T22:37:41.230Z,65.73
2022-08-16T22:40:27.364Z,65.65
2022-08-16T22:42:54.538Z,65.52
2022-08-16T22:45:22.540Z,65.85
2022-08-16T22:47:49.284Z,65.72
2022-08-16T22:50:15.557Z,65.92
2022-08-16T22:52:56.456Z,66.16
2022-08-16T22:55:26.008Z,65.85
2022-08-16T22:57:52.915Z,66.17
2022-08-16T23:00:20.360Z,66.22
2022-08-16T23:02:53.478Z,66.19
2022-08-16T23:05:21.752Z,66.11
2022-08-16T23:07:48.392Z,66.17
2022-08-16T23:10:14.796Z,66.32
2022-08-16T23:12:48.397Z,66.35
2022-08-16T23:15:16.395Z,66.42
2022-08-16T23:17:42.907Z,66.43
2022-08-16T23:20:10.444Z,66.56
2022-08-16T23:23:19.014Z,66.64
2022-08-16T23:25:33.346Z,66.55
2022-08-16T23:27:59.695Z,66.72
2022-08-16T23:30:26.659Z,66.76
2022-08-16T23:32:54.027Z,66.82
2022-08-16T23:35:21.861Z,67.01
2022-08-16T23:37:49.609Z,66.96
2022-08-16T23:40:16.113Z,66.89
2022-08-16T23:43:03.858Z,67.06
2022-08-16T23:45:34.423Z,66.94
2022-08-16T23:48:00.699Z,66.88
2022-08-16T23:50:27.273Z,67.21
2022-08-16T23:52:55.821Z,67.31
2022-08-16T23:55:22.363Z,67.16
2022-08-16T23:57:49.220Z,67.32
